Weather at Stinson Municipal Airport

Public forecast

Using degrees Fahrenheit for public forecast. Weather courtesy of forecast.io.

Current aviation weather report (METAR) for Stinson Municipal Airport

Retrieved 2021/01/15 13:53 UTC (42 minutes ago):

KSSF 151353Z 36010G16KT 10SM CLR 07/M09 A3019 RMK AO2 SLP227 T00721089

Aviation forecast (TAF) for Stinson Municipal Airport

Retrieved 2021/01/15 12:22 UTC (2 hours ago):

TAF KSSF 151120Z 1512/1612 35005KT P6SM SKC FM151700 36011G21KT P6SM FEW250 FM152300 32009KT P6SM SKC FM160100 29005KT P6SM SKC